<?xml version="1.0" encoding="UTF-8" standalone="no" ?>
<gpx xmlns="http://www.topografix.com/GPX/1/1" xmlns:xsi="http://www.w3.org/2001/XMLSchema-instance" xsi:schemaLocation="http://www.topografix.com/GPX/1/1 http://www.topografix.com/GPX/1/1/gpx.xsd" version="1.1" creator="VisuGPX - https://www.visugpx.com">
  <metadata>
    <name>secteur Saverne - Dabo - Petite Pierre</name>
  </metadata>
  <trk>
    <name><![CDATA[secteur Saverne - Dabo - Petite Pierre_34]]></name>
    <trkseg>
      <trkpt lat="48.76039" lon="7.34783">
        <ele>225.4</ele>
        <time>2020-05-22T10:38:06Z</time>
      </trkpt>
      <trkpt lat="48.76039" lon="7.34783">
        <ele>225.4</ele>
        <time>2020-05-22T10:38:06Z</time>
      </trkpt>
      <trkpt lat="48.76039" lon="7.34783">
        <ele>225.4</ele>
        <time>2020-05-22T10:38:06Z</time>
      </trkpt>
      <trkpt lat="48.76039" lon="7.34783">
        <ele>225.4</ele>
        <time>2020-05-22T10:38:06Z</time>
      </trkpt>
      <trkpt lat="48.76039" lon="7.34783">
        <ele>225.4</ele>
        <time>2020-05-22T10:38:06Z</time>
      </trkpt>
      <trkpt lat="48.76039" lon="7.34783">
        <ele>225.4</ele>
        <time>2020-05-22T10:38:06Z</time>
      </trkpt>
      <trkpt lat="48.76044" lon="7.34776">
        <ele>226</ele>
        <time>2020-05-22T10:38:08Z</time>
      </trkpt>
      <trkpt lat="48.76045" lon="7.34773">
        <ele>226.3</ele>
        <time>2020-05-22T10:38:09Z</time>
      </trkpt>
      <trkpt lat="48.76047" lon="7.34768">
        <ele>226.7</ele>
        <time>2020-05-22T10:38:11Z</time>
      </trkpt>
      <trkpt lat="48.76048" lon="7.34764">
        <ele>227.8</ele>
        <time>2020-05-22T10:38:12Z</time>
      </trkpt>
      <trkpt lat="48.76049" lon="7.34761">
        <ele>228</ele>
        <time>2020-05-22T10:38:13Z</time>
      </trkpt>
      <trkpt lat="48.76048" lon="7.34755">
        <ele>228.3</ele>
        <time>2020-05-22T10:38:15Z</time>
      </trkpt>
      <trkpt lat="48.76048" lon="7.3475">
        <ele>228.6</ele>
        <time>2020-05-22T10:38:16Z</time>
      </trkpt>
      <trkpt lat="48.76049" lon="7.34743">
        <ele>229.1</ele>
        <time>2020-05-22T10:38:18Z</time>
      </trkpt>
      <trkpt lat="48.7605" lon="7.34741">
        <ele>229.3</ele>
        <time>2020-05-22T10:38:19Z</time>
      </trkpt>
      <trkpt lat="48.76052" lon="7.34735">
        <ele>229.8</ele>
        <time>2020-05-22T10:38:21Z</time>
      </trkpt>
      <trkpt lat="48.76054" lon="7.3473">
        <ele>230.4</ele>
        <time>2020-05-22T10:38:23Z</time>
      </trkpt>
      <trkpt lat="48.76055" lon="7.34725">
        <ele>230.8</ele>
        <time>2020-05-22T10:38:25Z</time>
      </trkpt>
      <trkpt lat="48.76056" lon="7.34722">
        <ele>231.1</ele>
        <time>2020-05-22T10:38:26Z</time>
      </trkpt>
      <trkpt lat="48.76057" lon="7.34721">
        <ele>231.3</ele>
        <time>2020-05-22T10:38:27Z</time>
      </trkpt>
      <trkpt lat="48.76058" lon="7.34717">
        <ele>231.7</ele>
        <time>2020-05-22T10:38:28Z</time>
      </trkpt>
      <trkpt lat="48.76058" lon="7.34715">
        <ele>231.8</ele>
        <time>2020-05-22T10:38:29Z</time>
      </trkpt>
      <trkpt lat="48.7606" lon="7.3471">
        <ele>232.4</ele>
        <time>2020-05-22T10:38:31Z</time>
      </trkpt>
      <trkpt lat="48.76061" lon="7.34708">
        <ele>232.5</ele>
        <time>2020-05-22T10:38:32Z</time>
      </trkpt>
      <trkpt lat="48.76062" lon="7.34703">
        <ele>232.9</ele>
        <time>2020-05-22T10:38:34Z</time>
      </trkpt>
      <trkpt lat="48.76064" lon="7.347">
        <ele>233.3</ele>
        <time>2020-05-22T10:38:35Z</time>
      </trkpt>
      <trkpt lat="48.76064" lon="7.34699">
        <ele>233.4</ele>
        <time>2020-05-22T10:38:36Z</time>
      </trkpt>
      <trkpt lat="48.76066" lon="7.34693">
        <ele>233.8</ele>
        <time>2020-05-22T10:38:38Z</time>
      </trkpt>
      <trkpt lat="48.76067" lon="7.3469">
        <ele>233.9</ele>
        <time>2020-05-22T10:38:40Z</time>
      </trkpt>
      <trkpt lat="48.76067" lon="7.34688">
        <ele>234.1</ele>
        <time>2020-05-22T10:38:41Z</time>
      </trkpt>
      <trkpt lat="48.76067" lon="7.34686">
        <ele>234.2</ele>
        <time>2020-05-22T10:38:42Z</time>
      </trkpt>
      <trkpt lat="48.76069" lon="7.34681">
        <ele>234.5</ele>
        <time>2020-05-22T10:38:44Z</time>
      </trkpt>
      <trkpt lat="48.7607" lon="7.34679">
        <ele>234.7</ele>
        <time>2020-05-22T10:38:45Z</time>
      </trkpt>
      <trkpt lat="48.7607" lon="7.34677">
        <ele>234.8</ele>
        <time>2020-05-22T10:38:46Z</time>
      </trkpt>
      <trkpt lat="48.76071" lon="7.34672">
        <ele>235.1</ele>
        <time>2020-05-22T10:38:47Z</time>
      </trkpt>
      <trkpt lat="48.76071" lon="7.34671">
        <ele>235.2</ele>
        <time>2020-05-22T10:38:48Z</time>
      </trkpt>
      <trkpt lat="48.76071" lon="7.34666">
        <ele>235.5</ele>
        <time>2020-05-22T10:38:50Z</time>
      </trkpt>
      <trkpt lat="48.76072" lon="7.34664">
        <ele>235.7</ele>
        <time>2020-05-22T10:38:51Z</time>
      </trkpt>
      <trkpt lat="48.76073" lon="7.34661">
        <ele>235.9</ele>
        <time>2020-05-22T10:38:52Z</time>
      </trkpt>
      <trkpt lat="48.76074" lon="7.34659">
        <ele>236.1</ele>
        <time>2020-05-22T10:38:53Z</time>
      </trkpt>
      <trkpt lat="48.76075" lon="7.34652">
        <ele>236.5</ele>
        <time>2020-05-22T10:38:55Z</time>
      </trkpt>
      <trkpt lat="48.76075" lon="7.34646">
        <ele>236.9</ele>
        <time>2020-05-22T10:38:57Z</time>
      </trkpt>
      <trkpt lat="48.76076" lon="7.34645">
        <ele>237</ele>
        <time>2020-05-22T10:38:58Z</time>
      </trkpt>
      <trkpt lat="48.76077" lon="7.34643">
        <ele>237.2</ele>
        <time>2020-05-22T10:39:00Z</time>
      </trkpt>
      <trkpt lat="48.76077" lon="7.34643">
        <ele>237.2</ele>
        <time>2020-05-22T10:39:01Z</time>
      </trkpt>
      <trkpt lat="48.76077" lon="7.3464">
        <ele>237.4</ele>
        <time>2020-05-22T10:39:03Z</time>
      </trkpt>
      <trkpt lat="48.76075" lon="7.34635">
        <ele>237.8</ele>
        <time>2020-05-22T10:39:05Z</time>
      </trkpt>
      <trkpt lat="48.76076" lon="7.34631">
        <ele>238.1</ele>
        <time>2020-05-22T10:39:07Z</time>
      </trkpt>
      <trkpt lat="48.76079" lon="7.34626">
        <ele>238.6</ele>
        <time>2020-05-22T10:39:09Z</time>
      </trkpt>
      <trkpt lat="48.76081" lon="7.34622">
        <ele>239</ele>
        <time>2020-05-22T10:39:11Z</time>
      </trkpt>
      <trkpt lat="48.76081" lon="7.3462">
        <ele>239.1</ele>
        <time>2020-05-22T10:39:12Z</time>
      </trkpt>
      <trkpt lat="48.76082" lon="7.34619">
        <ele>239.2</ele>
        <time>2020-05-22T10:39:13Z</time>
      </trkpt>
      <trkpt lat="48.76082" lon="7.34616">
        <ele>239.5</ele>
        <time>2020-05-22T10:39:15Z</time>
      </trkpt>
      <trkpt lat="48.76083" lon="7.34613">
        <ele>239.7</ele>
        <time>2020-05-22T10:39:16Z</time>
      </trkpt>
      <trkpt lat="48.76085" lon="7.34609">
        <ele>240.1</ele>
        <time>2020-05-22T10:39:18Z</time>
      </trkpt>
      <trkpt lat="48.76087" lon="7.34607">
        <ele>240.4</ele>
        <time>2020-05-22T10:39:20Z</time>
      </trkpt>
      <trkpt lat="48.76092" lon="7.34606">
        <ele>240.9</ele>
        <time>2020-05-22T10:39:22Z</time>
      </trkpt>
      <trkpt lat="48.76095" lon="7.34605">
        <ele>241.2</ele>
        <time>2020-05-22T10:39:23Z</time>
      </trkpt>
      <trkpt lat="48.76096" lon="7.34604">
        <ele>241.3</ele>
        <time>2020-05-22T10:39:24Z</time>
      </trkpt>
      <trkpt lat="48.76096" lon="7.34602">
        <ele>241.4</ele>
        <time>2020-05-22T10:39:25Z</time>
      </trkpt>
      <trkpt lat="48.76097" lon="7.34597">
        <ele>241.7</ele>
        <time>2020-05-22T10:39:27Z</time>
      </trkpt>
      <trkpt lat="48.76098" lon="7.34596">
        <ele>241.8</ele>
        <time>2020-05-22T10:39:28Z</time>
      </trkpt>
      <trkpt lat="48.76099" lon="7.34591">
        <ele>242.1</ele>
        <time>2020-05-22T10:39:30Z</time>
      </trkpt>
      <trkpt lat="48.76099" lon="7.34585">
        <ele>242.4</ele>
        <time>2020-05-22T10:39:32Z</time>
      </trkpt>
      <trkpt lat="48.761" lon="7.34582">
        <ele>242.6</ele>
        <time>2020-05-22T10:39:33Z</time>
      </trkpt>
      <trkpt lat="48.76102" lon="7.34578">
        <ele>242.9</ele>
        <time>2020-05-22T10:39:35Z</time>
      </trkpt>
      <trkpt lat="48.76105" lon="7.34574">
        <ele>243.2</ele>
        <time>2020-05-22T10:39:37Z</time>
      </trkpt>
      <trkpt lat="48.76107" lon="7.34569">
        <ele>243.5</ele>
        <time>2020-05-22T10:39:39Z</time>
      </trkpt>
      <trkpt lat="48.76109" lon="7.34564">
        <ele>243.8</ele>
        <time>2020-05-22T10:39:40Z</time>
      </trkpt>
      <trkpt lat="48.76109" lon="7.34563">
        <ele>243.9</ele>
        <time>2020-05-22T10:39:41Z</time>
      </trkpt>
      <trkpt lat="48.76113" lon="7.34557">
        <ele>244.3</ele>
        <time>2020-05-22T10:39:43Z</time>
      </trkpt>
      <trkpt lat="48.76115" lon="7.34552">
        <ele>244.7</ele>
        <time>2020-05-22T10:39:45Z</time>
      </trkpt>
      <trkpt lat="48.76116" lon="7.34548">
        <ele>245</ele>
        <time>2020-05-22T10:39:47Z</time>
      </trkpt>
      <trkpt lat="48.76116" lon="7.34544">
        <ele>245.2</ele>
        <time>2020-05-22T10:39:49Z</time>
      </trkpt>
      <trkpt lat="48.76116" lon="7.34543">
        <ele>245.3</ele>
        <time>2020-05-22T10:39:50Z</time>
      </trkpt>
      <trkpt lat="48.76117" lon="7.3454">
        <ele>245.5</ele>
        <time>2020-05-22T10:39:52Z</time>
      </trkpt>
      <trkpt lat="48.7612" lon="7.34534">
        <ele>246.1</ele>
        <time>2020-05-22T10:39:54Z</time>
      </trkpt>
      <trkpt lat="48.76121" lon="7.34531">
        <ele>246.3</ele>
        <time>2020-05-22T10:39:55Z</time>
      </trkpt>
      <trkpt lat="48.7612" lon="7.34527">
        <ele>246.5</ele>
        <time>2020-05-22T10:39:57Z</time>
      </trkpt>
      <trkpt lat="48.7612" lon="7.34525">
        <ele>246.6</ele>
        <time>2020-05-22T10:39:58Z</time>
      </trkpt>
      <trkpt lat="48.76122" lon="7.34521">
        <ele>246.9</ele>
        <time>2020-05-22T10:40:00Z</time>
      </trkpt>
      <trkpt lat="48.76122" lon="7.34519">
        <ele>247.1</ele>
        <time>2020-05-22T10:40:01Z</time>
      </trkpt>
      <trkpt lat="48.76125" lon="7.34516">
        <ele>247.4</ele>
        <time>2020-05-22T10:40:03Z</time>
      </trkpt>
      <trkpt lat="48.76127" lon="7.34513">
        <ele>247.7</ele>
        <time>2020-05-22T10:40:05Z</time>
      </trkpt>
      <trkpt lat="48.76129" lon="7.34509">
        <ele>248</ele>
        <time>2020-05-22T10:40:07Z</time>
      </trkpt>
      <trkpt lat="48.76131" lon="7.34505">
        <ele>248.4</ele>
        <time>2020-05-22T10:40:09Z</time>
      </trkpt>
      <trkpt lat="48.76132" lon="7.34503">
        <ele>248.5</ele>
        <time>2020-05-22T10:40:10Z</time>
      </trkpt>
      <trkpt lat="48.76133" lon="7.34501">
        <ele>248.7</ele>
        <time>2020-05-22T10:40:11Z</time>
      </trkpt>
      <trkpt lat="48.76134" lon="7.345">
        <ele>248.8</ele>
        <time>2020-05-22T10:40:12Z</time>
      </trkpt>
      <trkpt lat="48.76134" lon="7.34498">
        <ele>248.9</ele>
        <time>2020-05-22T10:40:14Z</time>
      </trkpt>
      <trkpt lat="48.76135" lon="7.34497">
        <ele>249</ele>
        <time>2020-05-22T10:40:15Z</time>
      </trkpt>
      <trkpt lat="48.76136" lon="7.34496">
        <ele>249.2</ele>
        <time>2020-05-22T10:40:16Z</time>
      </trkpt>
      <trkpt lat="48.76139" lon="7.34491">
        <ele>249.6</ele>
        <time>2020-05-22T10:40:18Z</time>
      </trkpt>
      <trkpt lat="48.7614" lon="7.34484">
        <ele>250.1</ele>
        <time>2020-05-22T10:40:20Z</time>
      </trkpt>
      <trkpt lat="48.76141" lon="7.34481">
        <ele>250.3</ele>
        <time>2020-05-22T10:40:21Z</time>
      </trkpt>
      <trkpt lat="48.76145" lon="7.34477">
        <ele>250.6</ele>
        <time>2020-05-22T10:40:23Z</time>
      </trkpt>
      <trkpt lat="48.76146" lon="7.34476">
        <ele>250.8</ele>
        <time>2020-05-22T10:40:24Z</time>
      </trkpt>
      <trkpt lat="48.7615" lon="7.34471">
        <ele>251.3</ele>
        <time>2020-05-22T10:40:26Z</time>
      </trkpt>
      <trkpt lat="48.76151" lon="7.34468">
        <ele>251.5</ele>
        <time>2020-05-22T10:40:27Z</time>
      </trkpt>
      <trkpt lat="48.76152" lon="7.34467">
        <ele>251.6</ele>
        <time>2020-05-22T10:40:28Z</time>
      </trkpt>
      <trkpt lat="48.76153" lon="7.34466">
        <ele>251.7</ele>
        <time>2020-05-22T10:40:29Z</time>
      </trkpt>
      <trkpt lat="48.76155" lon="7.34463">
        <ele>251.9</ele>
        <time>2020-05-22T10:40:31Z</time>
      </trkpt>
      <trkpt lat="48.76157" lon="7.34458">
        <ele>252.2</ele>
        <time>2020-05-22T10:40:33Z</time>
      </trkpt>
      <trkpt lat="48.76157" lon="7.34457">
        <ele>252.3</ele>
        <time>2020-05-22T10:40:34Z</time>
      </trkpt>
      <trkpt lat="48.76157" lon="7.34453">
        <ele>252.5</ele>
        <time>2020-05-22T10:40:36Z</time>
      </trkpt>
      <trkpt lat="48.76157" lon="7.34449">
        <ele>252.8</ele>
        <time>2020-05-22T10:40:38Z</time>
      </trkpt>
      <trkpt lat="48.76156" lon="7.34446">
        <ele>252.9</ele>
        <time>2020-05-22T10:40:39Z</time>
      </trkpt>
      <trkpt lat="48.76157" lon="7.34441">
        <ele>253.2</ele>
        <time>2020-05-22T10:40:41Z</time>
      </trkpt>
      <trkpt lat="48.76157" lon="7.34433">
        <ele>253.6</ele>
        <time>2020-05-22T10:40:43Z</time>
      </trkpt>
      <trkpt lat="48.76158" lon="7.34431">
        <ele>253.8</ele>
        <time>2020-05-22T10:40:45Z</time>
      </trkpt>
      <trkpt lat="48.76158" lon="7.34428">
        <ele>253.9</ele>
        <time>2020-05-22T10:40:46Z</time>
      </trkpt>
      <trkpt lat="48.76158" lon="7.34426">
        <ele>254.1</ele>
        <time>2020-05-22T10:40:47Z</time>
      </trkpt>
      <trkpt lat="48.7616" lon="7.34421">
        <ele>254.4</ele>
        <time>2020-05-22T10:40:48Z</time>
      </trkpt>
      <trkpt lat="48.7616" lon="7.3442">
        <ele>254.4</ele>
        <time>2020-05-22T10:40:49Z</time>
      </trkpt>
      <trkpt lat="48.7616" lon="7.34416">
        <ele>254.7</ele>
        <time>2020-05-22T10:40:51Z</time>
      </trkpt>
      <trkpt lat="48.7616" lon="7.34412">
        <ele>254.9</ele>
        <time>2020-05-22T10:40:53Z</time>
      </trkpt>
      <trkpt lat="48.7616" lon="7.34407">
        <ele>255.2</ele>
        <time>2020-05-22T10:40:55Z</time>
      </trkpt>
      <trkpt lat="48.76161" lon="7.34402">
        <ele>255.5</ele>
        <time>2020-05-22T10:40:57Z</time>
      </trkpt>
      <trkpt lat="48.76163" lon="7.34396">
        <ele>255.8</ele>
        <time>2020-05-22T10:40:59Z</time>
      </trkpt>
      <trkpt lat="48.76164" lon="7.34393">
        <ele>256.1</ele>
        <time>2020-05-22T10:41:01Z</time>
      </trkpt>
      <trkpt lat="48.76165" lon="7.34391">
        <ele>256.3</ele>
        <time>2020-05-22T10:41:02Z</time>
      </trkpt>
      <trkpt lat="48.76168" lon="7.34386">
        <ele>256.6</ele>
        <time>2020-05-22T10:41:04Z</time>
      </trkpt>
      <trkpt lat="48.76169" lon="7.34383">
        <ele>256.8</ele>
        <time>2020-05-22T10:41:05Z</time>
      </trkpt>
      <trkpt lat="48.76168" lon="7.34381">
        <ele>256.9</ele>
        <time>2020-05-22T10:41:06Z</time>
      </trkpt>
      <trkpt lat="48.76167" lon="7.34378">
        <ele>257.1</ele>
        <time>2020-05-22T10:41:07Z</time>
      </trkpt>
      <trkpt lat="48.76167" lon="7.34374">
        <ele>257.4</ele>
        <time>2020-05-22T10:41:09Z</time>
      </trkpt>
      <trkpt lat="48.76167" lon="7.34372">
        <ele>257.5</ele>
        <time>2020-05-22T10:41:10Z</time>
      </trkpt>
      <trkpt lat="48.76167" lon="7.34369">
        <ele>257.7</ele>
        <time>2020-05-22T10:41:11Z</time>
      </trkpt>
      <trkpt lat="48.76167" lon="7.34363">
        <ele>258</ele>
        <time>2020-05-22T10:41:13Z</time>
      </trkpt>
      <trkpt lat="48.76169" lon="7.34358">
        <ele>258.4</ele>
        <time>2020-05-22T10:41:15Z</time>
      </trkpt>
      <trkpt lat="48.76169" lon="7.34356">
        <ele>258.6</ele>
        <time>2020-05-22T10:41:16Z</time>
      </trkpt>
      <trkpt lat="48.76168" lon="7.34353">
        <ele>258.8</ele>
        <time>2020-05-22T10:41:18Z</time>
      </trkpt>
      <trkpt lat="48.76168" lon="7.34351">
        <ele>258.9</ele>
        <time>2020-05-22T10:41:19Z</time>
      </trkpt>
      <trkpt lat="48.76167" lon="7.34349">
        <ele>259.1</ele>
        <time>2020-05-22T10:41:20Z</time>
      </trkpt>
      <trkpt lat="48.76166" lon="7.34344">
        <ele>259.4</ele>
        <time>2020-05-22T10:41:22Z</time>
      </trkpt>
      <trkpt lat="48.76166" lon="7.34343">
        <ele>259.5</ele>
        <time>2020-05-22T10:41:23Z</time>
      </trkpt>
      <trkpt lat="48.76165" lon="7.34338">
        <ele>259.8</ele>
        <time>2020-05-22T10:41:25Z</time>
      </trkpt>
      <trkpt lat="48.76165" lon="7.34336">
        <ele>260</ele>
        <time>2020-05-22T10:41:26Z</time>
      </trkpt>
      <trkpt lat="48.76165" lon="7.34333">
        <ele>260.2</ele>
        <time>2020-05-22T10:41:27Z</time>
      </trkpt>
      <trkpt lat="48.76165" lon="7.34331">
        <ele>260.3</ele>
        <time>2020-05-22T10:41:28Z</time>
      </trkpt>
      <trkpt lat="48.76165" lon="7.34325">
        <ele>260.9</ele>
        <time>2020-05-22T10:41:30Z</time>
      </trkpt>
      <trkpt lat="48.76165" lon="7.34322">
        <ele>261.2</ele>
        <time>2020-05-22T10:41:31Z</time>
      </trkpt>
      <trkpt lat="48.76165" lon="7.34317">
        <ele>261.8</ele>
        <time>2020-05-22T10:41:33Z</time>
      </trkpt>
      <trkpt lat="48.76164" lon="7.34315">
        <ele>262.1</ele>
        <time>2020-05-22T10:41:34Z</time>
      </trkpt>
      <trkpt lat="48.76163" lon="7.34309">
        <ele>262.6</ele>
        <time>2020-05-22T10:41:36Z</time>
      </trkpt>
      <trkpt lat="48.76162" lon="7.34307">
        <ele>262.9</ele>
        <time>2020-05-22T10:41:37Z</time>
      </trkpt>
      <trkpt lat="48.76163" lon="7.34305">
        <ele>263.1</ele>
        <time>2020-05-22T10:41:38Z</time>
      </trkpt>
      <trkpt lat="48.76164" lon="7.343">
        <ele>263.7</ele>
        <time>2020-05-22T10:41:39Z</time>
      </trkpt>
      <trkpt lat="48.76165" lon="7.34299">
        <ele>263.8</ele>
        <time>2020-05-22T10:41:40Z</time>
      </trkpt>
      <trkpt lat="48.76164" lon="7.34294">
        <ele>264.4</ele>
        <time>2020-05-22T10:41:42Z</time>
      </trkpt>
      <trkpt lat="48.76162" lon="7.34289">
        <ele>265.1</ele>
        <time>2020-05-22T10:41:44Z</time>
      </trkpt>
      <trkpt lat="48.76161" lon="7.34285">
        <ele>265.4</ele>
        <time>2020-05-22T10:41:45Z</time>
      </trkpt>
      <trkpt lat="48.76161" lon="7.34284">
        <ele>265.6</ele>
        <time>2020-05-22T10:41:46Z</time>
      </trkpt>
      <trkpt lat="48.7616" lon="7.34283">
        <ele>265.7</ele>
        <time>2020-05-22T10:41:47Z</time>
      </trkpt>
      <trkpt lat="48.76159" lon="7.34279">
        <ele>266.1</ele>
        <time>2020-05-22T10:41:49Z</time>
      </trkpt>
      <trkpt lat="48.76159" lon="7.34277">
        <ele>266.3</ele>
        <time>2020-05-22T10:41:50Z</time>
      </trkpt>
      <trkpt lat="48.76158" lon="7.3427">
        <ele>266.9</ele>
        <time>2020-05-22T10:41:52Z</time>
      </trkpt>
      <trkpt lat="48.76159" lon="7.34267">
        <ele>267.3</ele>
        <time>2020-05-22T10:41:53Z</time>
      </trkpt>
      <trkpt lat="48.7616" lon="7.34262">
        <ele>267.7</ele>
        <time>2020-05-22T10:41:55Z</time>
      </trkpt>
      <trkpt lat="48.76159" lon="7.34257">
        <ele>268.1</ele>
        <time>2020-05-22T10:41:56Z</time>
      </trkpt>
      <trkpt lat="48.76159" lon="7.34256">
        <ele>268.3</ele>
        <time>2020-05-22T10:41:57Z</time>
      </trkpt>
      <trkpt lat="48.76158" lon="7.34251">
        <ele>268.8</ele>
        <time>2020-05-22T10:41:58Z</time>
      </trkpt>
      <trkpt lat="48.76157" lon="7.34249">
        <ele>269</ele>
        <time>2020-05-22T10:41:59Z</time>
      </trkpt>
      <trkpt lat="48.76157" lon="7.34244">
        <ele>269.5</ele>
        <time>2020-05-22T10:42:01Z</time>
      </trkpt>
      <trkpt lat="48.76157" lon="7.34242">
        <ele>269.7</ele>
        <time>2020-05-22T10:42:02Z</time>
      </trkpt>
      <trkpt lat="48.76156" lon="7.34238">
        <ele>270.1</ele>
        <time>2020-05-22T10:42:03Z</time>
      </trkpt>
      <trkpt lat="48.76155" lon="7.34232">
        <ele>270.7</ele>
        <time>2020-05-22T10:42:05Z</time>
      </trkpt>
      <trkpt lat="48.76156" lon="7.34228">
        <ele>271.2</ele>
        <time>2020-05-22T10:42:07Z</time>
      </trkpt>
      <trkpt lat="48.76156" lon="7.34226">
        <ele>271.4</ele>
        <time>2020-05-22T10:42:08Z</time>
      </trkpt>
      <trkpt lat="48.76156" lon="7.34225">
        <ele>271.5</ele>
        <time>2020-05-22T10:42:09Z</time>
      </trkpt>
      <trkpt lat="48.76156" lon="7.34221">
        <ele>272</ele>
        <time>2020-05-22T10:42:11Z</time>
      </trkpt>
      <trkpt lat="48.76154" lon="7.34215">
        <ele>272.7</ele>
        <time>2020-05-22T10:42:13Z</time>
      </trkpt>
      <trkpt lat="48.76153" lon="7.3421">
        <ele>273.2</ele>
        <time>2020-05-22T10:42:14Z</time>
      </trkpt>
      <trkpt lat="48.76153" lon="7.34209">
        <ele>273.3</ele>
        <time>2020-05-22T10:42:15Z</time>
      </trkpt>
      <trkpt lat="48.76153" lon="7.34206">
        <ele>273.6</ele>
        <time>2020-05-22T10:42:16Z</time>
      </trkpt>
      <trkpt lat="48.76152" lon="7.342">
        <ele>274.2</ele>
        <time>2020-05-22T10:42:18Z</time>
      </trkpt>
      <trkpt lat="48.76151" lon="7.34196">
        <ele>274.6</ele>
        <time>2020-05-22T10:42:20Z</time>
      </trkpt>
      <trkpt lat="48.76151" lon="7.3419">
        <ele>275.2</ele>
        <time>2020-05-22T10:42:22Z</time>
      </trkpt>
      <trkpt lat="48.76151" lon="7.34185">
        <ele>275.5</ele>
        <time>2020-05-22T10:42:23Z</time>
      </trkpt>
      <trkpt lat="48.7615" lon="7.34184">
        <ele>275.7</ele>
        <time>2020-05-22T10:42:24Z</time>
      </trkpt>
      <trkpt lat="48.76151" lon="7.34176">
        <ele>276.3</ele>
        <time>2020-05-22T10:42:26Z</time>
      </trkpt>
      <trkpt lat="48.76152" lon="7.34173">
        <ele>276.6</ele>
        <time>2020-05-22T10:42:27Z</time>
      </trkpt>
      <trkpt lat="48.76152" lon="7.34172">
        <ele>276.7</ele>
        <time>2020-05-22T10:42:28Z</time>
      </trkpt>
      <trkpt lat="48.7615" lon="7.34168">
        <ele>277.2</ele>
        <time>2020-05-22T10:42:30Z</time>
      </trkpt>
      <trkpt lat="48.76147" lon="7.34163">
        <ele>277.7</ele>
        <time>2020-05-22T10:42:32Z</time>
      </trkpt>
      <trkpt lat="48.76145" lon="7.34159">
        <ele>278.2</ele>
        <time>2020-05-22T10:42:34Z</time>
      </trkpt>
      <trkpt lat="48.76144" lon="7.34154">
        <ele>278.6</ele>
        <time>2020-05-22T10:42:36Z</time>
      </trkpt>
      <trkpt lat="48.76143" lon="7.34152">
        <ele>278.8</ele>
        <time>2020-05-22T10:42:37Z</time>
      </trkpt>
      <trkpt lat="48.76143" lon="7.34149">
        <ele>279.1</ele>
        <time>2020-05-22T10:42:38Z</time>
      </trkpt>
      <trkpt lat="48.76142" lon="7.34143">
        <ele>279.6</ele>
        <time>2020-05-22T10:42:40Z</time>
      </trkpt>
      <trkpt lat="48.7614" lon="7.34137">
        <ele>280.1</ele>
        <time>2020-05-22T10:42:42Z</time>
      </trkpt>
      <trkpt lat="48.76139" lon="7.34133">
        <ele>280.6</ele>
        <time>2020-05-22T10:42:44Z</time>
      </trkpt>
      <trkpt lat="48.76138" lon="7.34131">
        <ele>280.7</ele>
        <time>2020-05-22T10:42:45Z</time>
      </trkpt>
      <trkpt lat="48.76136" lon="7.34126">
        <ele>281.2</ele>
        <time>2020-05-22T10:42:47Z</time>
      </trkpt>
      <trkpt lat="48.76135" lon="7.34122">
        <ele>281.6</ele>
        <time>2020-05-22T10:42:49Z</time>
      </trkpt>
      <trkpt lat="48.76134" lon="7.34121">
        <ele>281.7</ele>
        <time>2020-05-22T10:42:50Z</time>
      </trkpt>
      <trkpt lat="48.76134" lon="7.3412">
        <ele>281.8</ele>
        <time>2020-05-22T10:42:51Z</time>
      </trkpt>
      <trkpt lat="48.76132" lon="7.34116">
        <ele>282.3</ele>
        <time>2020-05-22T10:42:53Z</time>
      </trkpt>
      <trkpt lat="48.76131" lon="7.34111">
        <ele>282.7</ele>
        <time>2020-05-22T10:42:54Z</time>
      </trkpt>
      <trkpt lat="48.76131" lon="7.3411">
        <ele>282.8</ele>
        <time>2020-05-22T10:42:55Z</time>
      </trkpt>
      <trkpt lat="48.76129" lon="7.34105">
        <ele>283.3</ele>
        <time>2020-05-22T10:42:57Z</time>
      </trkpt>
      <trkpt lat="48.76128" lon="7.34099">
        <ele>283.8</ele>
        <time>2020-05-22T10:42:59Z</time>
      </trkpt>
      <trkpt lat="48.76128" lon="7.34096">
        <ele>284.1</ele>
        <time>2020-05-22T10:43:00Z</time>
      </trkpt>
      <trkpt lat="48.76128" lon="7.34094">
        <ele>284.3</ele>
        <time>2020-05-22T10:43:01Z</time>
      </trkpt>
      <trkpt lat="48.76127" lon="7.34089">
        <ele>284.8</ele>
        <time>2020-05-22T10:43:03Z</time>
      </trkpt>
      <trkpt lat="48.76125" lon="7.34085">
        <ele>285.2</ele>
        <time>2020-05-22T10:43:05Z</time>
      </trkpt>
      <trkpt lat="48.76124" lon="7.34083">
        <ele>285.4</ele>
        <time>2020-05-22T10:43:06Z</time>
      </trkpt>
      <trkpt lat="48.76122" lon="7.34078">
        <ele>285.9</ele>
        <time>2020-05-22T10:43:08Z</time>
      </trkpt>
      <trkpt lat="48.76121" lon="7.34076">
        <ele>286.1</ele>
        <time>2020-05-22T10:43:09Z</time>
      </trkpt>
      <trkpt lat="48.76119" lon="7.34071">
        <ele>286.6</ele>
        <time>2020-05-22T10:43:11Z</time>
      </trkpt>
      <trkpt lat="48.76118" lon="7.34067">
        <ele>286.9</ele>
        <time>2020-05-22T10:43:13Z</time>
      </trkpt>
      <trkpt lat="48.76118" lon="7.34063">
        <ele>287.3</ele>
        <time>2020-05-22T10:43:15Z</time>
      </trkpt>
      <trkpt lat="48.76116" lon="7.34059">
        <ele>287.7</ele>
        <time>2020-05-22T10:43:17Z</time>
      </trkpt>
      <trkpt lat="48.76115" lon="7.34057">
        <ele>287.9</ele>
        <time>2020-05-22T10:43:18Z</time>
      </trkpt>
      <trkpt lat="48.76114" lon="7.34053">
        <ele>288.2</ele>
        <time>2020-05-22T10:43:20Z</time>
      </trkpt>
      <trkpt lat="48.76113" lon="7.34049">
        <ele>288.6</ele>
        <time>2020-05-22T10:43:22Z</time>
      </trkpt>
      <trkpt lat="48.76112" lon="7.34048">
        <ele>288.7</ele>
        <time>2020-05-22T10:43:23Z</time>
      </trkpt>
      <trkpt lat="48.7611" lon="7.34046">
        <ele>289.1</ele>
        <time>2020-05-22T10:43:25Z</time>
      </trkpt>
      <trkpt lat="48.76107" lon="7.34042">
        <ele>289.6</ele>
        <time>2020-05-22T10:43:27Z</time>
      </trkpt>
      <trkpt lat="48.76107" lon="7.34042">
        <ele>289.8</ele>
        <time>2020-05-22T10:43:28Z</time>
      </trkpt>
      <trkpt lat="48.76105" lon="7.3404">
        <ele>290.1</ele>
        <time>2020-05-22T10:43:29Z</time>
      </trkpt>
      <trkpt lat="48.76102" lon="7.34036">
        <ele>290.7</ele>
        <time>2020-05-22T10:43:31Z</time>
      </trkpt>
      <trkpt lat="48.76101" lon="7.34035">
        <ele>290.9</ele>
        <time>2020-05-22T10:43:32Z</time>
      </trkpt>
      <trkpt lat="48.76099" lon="7.34031">
        <ele>291.5</ele>
        <time>2020-05-22T10:43:34Z</time>
      </trkpt>
      <trkpt lat="48.76098" lon="7.34029">
        <ele>291.7</ele>
        <time>2020-05-22T10:43:35Z</time>
      </trkpt>
      <trkpt lat="48.76097" lon="7.34025">
        <ele>292.1</ele>
        <time>2020-05-22T10:43:37Z</time>
      </trkpt>
      <trkpt lat="48.76097" lon="7.34023">
        <ele>292.3</ele>
        <time>2020-05-22T10:43:38Z</time>
      </trkpt>
      <trkpt lat="48.76095" lon="7.3402">
        <ele>292.8</ele>
        <time>2020-05-22T10:43:40Z</time>
      </trkpt>
      <trkpt lat="48.76093" lon="7.34018">
        <ele>293.1</ele>
        <time>2020-05-22T10:43:42Z</time>
      </trkpt>
      <trkpt lat="48.76093" lon="7.34016">
        <ele>293.2</ele>
        <time>2020-05-22T10:43:43Z</time>
      </trkpt>
      <trkpt lat="48.76093" lon="7.34012">
        <ele>293.6</ele>
        <time>2020-05-22T10:43:44Z</time>
      </trkpt>
      <trkpt lat="48.76093" lon="7.3401">
        <ele>293.7</ele>
        <time>2020-05-22T10:43:45Z</time>
      </trkpt>
      <trkpt lat="48.76092" lon="7.34005">
        <ele>294.2</ele>
        <time>2020-05-22T10:43:47Z</time>
      </trkpt>
      <trkpt lat="48.76091" lon="7.34003">
        <ele>294.4</ele>
        <time>2020-05-22T10:43:48Z</time>
      </trkpt>
      <trkpt lat="48.76091" lon="7.34001">
        <ele>294.6</ele>
        <time>2020-05-22T10:43:50Z</time>
      </trkpt>
      <trkpt lat="48.76092" lon="7.33998">
        <ele>294.9</ele>
        <time>2020-05-22T10:43:51Z</time>
      </trkpt>
      <trkpt lat="48.76094" lon="7.33994">
        <ele>295.3</ele>
        <time>2020-05-22T10:43:53Z</time>
      </trkpt>
      <trkpt lat="48.76095" lon="7.33989">
        <ele>295.9</ele>
        <time>2020-05-22T10:43:55Z</time>
      </trkpt>
      <trkpt lat="48.76095" lon="7.33985">
        <ele>296.2</ele>
        <time>2020-05-22T10:43:56Z</time>
      </trkpt>
      <trkpt lat="48.76094" lon="7.33983">
        <ele>296.4</ele>
        <time>2020-05-22T10:43:57Z</time>
      </trkpt>
      <trkpt lat="48.76094" lon="7.33982">
        <ele>296.5</ele>
        <time>2020-05-22T10:43:58Z</time>
      </trkpt>
      <trkpt lat="48.76093" lon="7.3398">
        <ele>296.7</ele>
        <time>2020-05-22T10:43:59Z</time>
      </trkpt>
      <trkpt lat="48.76091" lon="7.33976">
        <ele>297.1</ele>
        <time>2020-05-22T10:44:01Z</time>
      </trkpt>
      <trkpt lat="48.76091" lon="7.33973">
        <ele>297.3</ele>
        <time>2020-05-22T10:44:02Z</time>
      </trkpt>
      <trkpt lat="48.76091" lon="7.33971">
        <ele>297.6</ele>
        <time>2020-05-22T10:44:03Z</time>
      </trkpt>
      <trkpt lat="48.76091" lon="7.33967">
        <ele>297.9</ele>
        <time>2020-05-22T10:44:05Z</time>
      </trkpt>
      <trkpt lat="48.76092" lon="7.33962">
        <ele>298.3</ele>
        <time>2020-05-22T10:44:07Z</time>
      </trkpt>
      <trkpt lat="48.76091" lon="7.33958">
        <ele>298.7</ele>
        <time>2020-05-22T10:44:09Z</time>
      </trkpt>
      <trkpt lat="48.7609" lon="7.33953">
        <ele>299.1</ele>
        <time>2020-05-22T10:44:11Z</time>
      </trkpt>
      <trkpt lat="48.76089" lon="7.3395">
        <ele>299.4</ele>
        <time>2020-05-22T10:44:12Z</time>
      </trkpt>
      <trkpt lat="48.76088" lon="7.33943">
        <ele>300</ele>
        <time>2020-05-22T10:44:14Z</time>
      </trkpt>
      <trkpt lat="48.76086" lon="7.33938">
        <ele>300.5</ele>
        <time>2020-05-22T10:44:16Z</time>
      </trkpt>
      <trkpt lat="48.76085" lon="7.33935">
        <ele>300.7</ele>
        <time>2020-05-22T10:44:17Z</time>
      </trkpt>
      <trkpt lat="48.76084" lon="7.33931">
        <ele>301.1</ele>
        <time>2020-05-22T10:44:19Z</time>
      </trkpt>
      <trkpt lat="48.76084" lon="7.33927">
        <ele>301.4</ele>
        <time>2020-05-22T10:44:21Z</time>
      </trkpt>
      <trkpt lat="48.76084" lon="7.33924">
        <ele>301.7</ele>
        <time>2020-05-22T10:44:22Z</time>
      </trkpt>
      <trkpt lat="48.76083" lon="7.33919">
        <ele>302.1</ele>
        <time>2020-05-22T10:44:24Z</time>
      </trkpt>
      <trkpt lat="48.76084" lon="7.33914">
        <ele>302.6</ele>
        <time>2020-05-22T10:44:26Z</time>
      </trkpt>
      <trkpt lat="48.76084" lon="7.33911">
        <ele>302.9</ele>
        <time>2020-05-22T10:44:27Z</time>
      </trkpt>
      <trkpt lat="48.76084" lon="7.33908">
        <ele>303.2</ele>
        <time>2020-05-22T10:44:28Z</time>
      </trkpt>
      <trkpt lat="48.76084" lon="7.33907">
        <ele>303.4</ele>
        <time>2020-05-22T10:44:29Z</time>
      </trkpt>
      <trkpt lat="48.76083" lon="7.33905">
        <ele>303.6</ele>
        <time>2020-05-22T10:44:30Z</time>
      </trkpt>
      <trkpt lat="48.76082" lon="7.33901">
        <ele>304</ele>
        <time>2020-05-22T10:44:32Z</time>
      </trkpt>
      <trkpt lat="48.7608" lon="7.33896">
        <ele>304.7</ele>
        <time>2020-05-22T10:44:34Z</time>
      </trkpt>
      <trkpt lat="48.76078" lon="7.33892">
        <ele>305.1</ele>
        <time>2020-05-22T10:44:36Z</time>
      </trkpt>
      <trkpt lat="48.76078" lon="7.3389">
        <ele>305.2</ele>
        <time>2020-05-22T10:44:37Z</time>
      </trkpt>
      <trkpt lat="48.76077" lon="7.33888">
        <ele>305.5</ele>
        <time>2020-05-22T10:44:38Z</time>
      </trkpt>
      <trkpt lat="48.76076" lon="7.33886">
        <ele>305.7</ele>
        <time>2020-05-22T10:44:39Z</time>
      </trkpt>
      <trkpt lat="48.76075" lon="7.33881">
        <ele>306.1</ele>
        <time>2020-05-22T10:44:41Z</time>
      </trkpt>
      <trkpt lat="48.76074" lon="7.33879">
        <ele>306.3</ele>
        <time>2020-05-22T10:44:42Z</time>
      </trkpt>
      <trkpt lat="48.76074" lon="7.33874">
        <ele>306.6</ele>
        <time>2020-05-22T10:44:44Z</time>
      </trkpt>
      <trkpt lat="48.76073" lon="7.33871">
        <ele>306.9</ele>
        <time>2020-05-22T10:44:45Z</time>
      </trkpt>
      <trkpt lat="48.76073" lon="7.33868">
        <ele>307</ele>
        <time>2020-05-22T10:44:47Z</time>
      </trkpt>
      <trkpt lat="48.76073" lon="7.33866">
        <ele>307.2</ele>
        <time>2020-05-22T10:44:48Z</time>
      </trkpt>
      <trkpt lat="48.76072" lon="7.33864">
        <ele>307.4</ele>
        <time>2020-05-22T10:44:49Z</time>
      </trkpt>
      <trkpt lat="48.7607" lon="7.33859">
        <ele>307.9</ele>
        <time>2020-05-22T10:44:51Z</time>
      </trkpt>
      <trkpt lat="48.76068" lon="7.33856">
        <ele>308.2</ele>
        <time>2020-05-22T10:44:53Z</time>
      </trkpt>
      <trkpt lat="48.76067" lon="7.33853">
        <ele>308.4</ele>
        <time>2020-05-22T10:44:54Z</time>
      </trkpt>
      <trkpt lat="48.76067" lon="7.3385">
        <ele>308.7</ele>
        <time>2020-05-22T10:44:55Z</time>
      </trkpt>
      <trkpt lat="48.76066" lon="7.33846">
        <ele>309.2</ele>
        <time>2020-05-22T10:44:57Z</time>
      </trkpt>
      <trkpt lat="48.76065" lon="7.33843">
        <ele>309.4</ele>
        <time>2020-05-22T10:44:58Z</time>
      </trkpt>
      <trkpt lat="48.76066" lon="7.33838">
        <ele>309.9</ele>
        <time>2020-05-22T10:45:00Z</time>
      </trkpt>
      <trkpt lat="48.76066" lon="7.33836">
        <ele>310.1</ele>
        <time>2020-05-22T10:45:01Z</time>
      </trkpt>
      <trkpt lat="48.76063" lon="7.33831">
        <ele>310.7</ele>
        <time>2020-05-22T10:45:03Z</time>
      </trkpt>
      <trkpt lat="48.7606" lon="7.33827">
        <ele>311.2</ele>
        <time>2020-05-22T10:45:04Z</time>
      </trkpt>
      <trkpt lat="48.76059" lon="7.33825">
        <ele>311.4</ele>
        <time>2020-05-22T10:45:05Z</time>
      </trkpt>
      <trkpt lat="48.76058" lon="7.33819">
        <ele>312</ele>
        <time>2020-05-22T10:45:07Z</time>
      </trkpt>
      <trkpt lat="48.76058" lon="7.33817">
        <ele>312.1</ele>
        <time>2020-05-22T10:45:08Z</time>
      </trkpt>
      <trkpt lat="48.76053" lon="7.33806">
        <ele>334.3</ele>
      </trkpt>
      <trkpt lat="48.76054" lon="7.33835">
        <ele>335.7</ele>
      </trkpt>
      <trkpt lat="48.76052" lon="7.33895">
        <ele>338.6</ele>
      </trkpt>
      <trkpt lat="48.76057" lon="7.33934">
        <ele>338.5</ele>
      </trkpt>
      <trkpt lat="48.76058" lon="7.33947">
        <ele>339.1</ele>
      </trkpt>
      <trkpt lat="48.76057" lon="7.33972">
        <ele>339.2</ele>
      </trkpt>
      <trkpt lat="48.76057" lon="7.34017">
        <ele>338.8</ele>
      </trkpt>
      <trkpt lat="48.7606" lon="7.34071">
        <ele>338</ele>
      </trkpt>
      <trkpt lat="48.76064" lon="7.34147">
        <ele>337.6</ele>
      </trkpt>
      <trkpt lat="48.76068" lon="7.34201">
        <ele>332.6</ele>
      </trkpt>
      <trkpt lat="48.76067" lon="7.34239">
        <ele>325.5</ele>
      </trkpt>
      <trkpt lat="48.76062" lon="7.34293">
        <ele>322.7</ele>
      </trkpt>
      <trkpt lat="48.76048" lon="7.34341">
        <ele>316</ele>
      </trkpt>
      <trkpt lat="48.76016" lon="7.3441">
        <ele>319.8</ele>
      </trkpt>
      <trkpt lat="48.75992" lon="7.34445">
        <ele>328.3</ele>
      </trkpt>
      <trkpt lat="48.75967" lon="7.34483">
        <ele>327.1</ele>
      </trkpt>
      <trkpt lat="48.75942" lon="7.34518">
        <ele>319.4</ele>
      </trkpt>
    </trkseg>
  </trk>
</gpx>